Time;durP1;ratioP1;P1;durP2;ratioP2;P2;SDS_P1;SDS_P2;PMS_P1;PMS_P2;Temp;Humidity;BMP_temperature;BMP_pressure;BME280_temperature;BME280_humidity;BME280_pressure;Samples;Min_cycle;Max_cycle;Signal;HPM_P1;HPM_P2
2023/05/22 00:01:06;;;;;;;9.75;5.35;;;;;;;19.86;60.28;99640.97;4289581;33;20124;-84
2023/05/22 00:03:32;;;;;;;10.23;5.18;;;;;;;19.65;60.26;99639.88;4289268;33;21902;-85
2023/05/22 00:05:59;;;;;;;9.07;5.82;;;;;;;19.64;60.26;99648.75;4289726;33;20138;-84
2023/05/22 00:08:25;;;;;;;6.55;4.70;;;;;;;19.70;60.27;99640.38;4289676;33;20092;-84
2023/05/22 00:10:51;;;;;;;7.95;5.37;;;;;;;19.60;60.26;99652.53;4290911;33;20097;-84
2023/05/22 00:13:16;;;;;;;6.25;4.65;;;;;;;19.56;60.25;99643.16;4288877;33;31756;-85
2023/05/22 00:15:41;;;;;;;7.75;5.80;;;;;;;19.43;60.24;99643.16;4289398;33;20457;-84
2023/05/22 00:18:07;;;;;;;9.77;6.03;;;;;;;19.28;60.24;99645.06;4290097;33;29745;-85
2023/05/22 00:20:37;;;;;;;8.30;5.68;;;;;;;19.31;60.25;99644.00;4277613;33;20105;-84
2023/05/22 00:23:08;;;;;;;14.20;5.90;;;;;;;19.29;60.23;99646.75;4290859;33;20123;-84
2023/05/22 00:25:34;;;;;;;8.45;5.10;;;;;;;19.17;60.24;99641.50;4290724;33;20242;-85
2023/05/22 00:28:00;;;;;;;9.77;6.20;;;;;;;19.04;60.23;99633.56;4277525;33;20474;-85
2023/05/22 00:30:25;;;;;;;7.85;5.37;;;;;;;19.01;60.23;99637.25;4290900;33;20420;-85
2023/05/22 00:32:50;;;;;;;11.25;6.15;;;;;;;19.12;60.23;99636.50;4290121;33;27748;-85
2023/05/22 00:35:16;;;;;;;8.98;5.57;;;;;;;18.95;60.22;99639.47;4289414;33;20148;-85
2023/05/22 00:37:43;;;;;;;9.15;6.05;;;;;;;18.85;60.22;99635.75;4288394;33;29199;-85
2023/05/22 00:40:09;;;;;;;8.70;5.57;;;;;;;19.08;60.24;99639.47;4290616;33;20105;-85
2023/05/22 00:42:34;;;;;;;9.85;5.45;;;;;;;18.91;60.21;99636.19;4289481;33;20100;-86
2023/05/22 00:45:00;;;;;;;8.70;5.85;;;;;;;18.88;60.22;99640.81;4289440;33;20377;-84
2023/05/22 00:47:25;;;;;;;12.02;5.45;;;;;;;18.83;60.22;99633.22;4288794;33;23380;-84
2023/05/22 00:49:51;;;;;;;10.55;5.32;;;;;;;18.81;60.22;99637.75;4290648;33;20140;-84
2023/05/22 00:52:17;;;;;;;10.52;5.43;;;;;;;18.78;60.22;99642.41;4289338;33;20123;-85
2023/05/22 00:54:42;;;;;;;8.00;5.70;;;;;;;18.76;60.21;99645.16;4277465;33;20109;-85
2023/05/22 00:57:08;;;;;;;11.48;5.78;;;;;;;19.23;60.25;99636.63;4289357;33;20097;-85
2023/05/22 00:59:33;;;;;;;11.07;5.72;;;;;;;18.63;60.21;99639.00;4290535;33;20157;-85
2023/05/22 01:01:58;;;;;;;13.00;5.50;;;;;;;18.46;60.19;99647.16;4289283;33;20131;-84
2023/05/22 01:04:24;;;;;;;10.77;6.18;;;;;;;18.46;60.21;99636.63;4277521;33;20135;-85
2023/05/22 01:06:49;;;;;;;10.15;5.82;;;;;;;18.29;60.19;99635.94;4277246;33;20188;-85
2023/05/22 01:09:15;;;;;;;9.57;5.70;;;;;;;18.39;60.19;99634.38;4290514;33;20164;-85
2023/05/22 01:11:51;;;;;;;8.77;5.82;;;;;;;18.12;60.18;99632.69;4290065;33;21912;-85
2023/05/22 01:14:24;;;;;;;7.80;5.47;;;;;;;18.31;60.19;99634.03;4289336;33;20167;-85
2023/05/22 01:16:58;;;;;;;7.53;5.60;;;;;;;18.33;60.19;99629.50;4289350;33;20119;-86
2023/05/22 01:19:52;;;;;;;11.12;5.87;;;;;;;18.36;60.19;99634.56;4277237;33;20177;-86
2023/05/22 01:22:57;;;;;;;8.43;5.22;;;;;;;18.25;60.19;99638.88;4289122;33;20121;-85
2023/05/22 01:25:44;;;;;;;9.82;5.40;;;;;;;18.14;60.18;99636.09;4290295;33;20100;-85
2023/05/22 01:28:36;;;;;;;10.60;5.78;;;;;;;18.35;60.19;99630.25;4289202;33;20085;-85
2023/05/22 01:31:26;;;;;;;8.00;5.72;;;;;;;18.09;60.18;99639.03;4289016;33;20100;-85
2023/05/22 01:33:55;;;;;;;12.40;6.00;;;;;;;18.23;60.19;99638.97;4282464;33;20127;-83
2023/05/22 01:36:24;;;;;;;9.68;5.93;;;;;;;18.07;60.17;99640.91;4277400;33;20584;-84
2023/05/22 01:38:50;;;;;;;7.15;5.07;;;;;;;18.00;60.17;99637.00;4289580;33;20467;-83
2023/05/22 01:41:16;;;;;;;7.90;5.53;;;;;;;17.91;60.16;99629.66;4288991;33;20169;-83
2023/05/22 01:43:41;;;;;;;8.52;5.55;;;;;;;17.93;60.17;99635.66;4290405;33;20470;-83
2023/05/22 01:46:07;;;;;;;11.95;5.97;;;;;;;17.90;60.16;99631.44;4277297;33;20080;-83
2023/05/22 01:48:32;;;;;;;7.05;4.82;;;;;;;17.85;60.17;99624.78;4290043;33;20128;-83
2023/05/22 01:51:02;;;;;;;8.63;5.37;;;;;;;17.98;60.17;99621.28;4288995;33;20081;-83
2023/05/22 01:53:41;;;;;;;10.25;5.95;;;;;;;17.78;60.16;99627.81;4277099;33;20135;-83
2023/05/22 01:56:13;;;;;;;9.57;5.15;;;;;;;17.76;60.17;99621.81;4288743;33;20174;-83
2023/05/22 01:58:41;;;;;;;7.43;5.20;;;;;;;17.71;60.16;99620.37;4277162;33;20156;-83
2023/05/22 02:01:07;;;;;;;6.97;5.20;;;;;;;17.49;60.15;99626.13;4290107;33;20112;-82
2023/05/22 02:03:34;;;;;;;8.75;4.95;;;;;;;17.28;60.13;99619.59;4277030;33;20124;-82
2023/05/22 02:06:02;;;;;;;7.62;5.20;;;;;;;17.63;60.15;99612.97;4277128;33;20115;-83
2023/05/22 02:08:27;;;;;;;7.45;5.07;;;;;;;17.07;60.12;99614.69;4277042;33;20104;-83
2023/05/22 02:10:56;;;;;;;9.13;5.20;;;;;;;16.93;60.12;99619.09;4288357;33;20165;-83
2023/05/22 02:13:21;;;;;;;8.48;4.80;;;;;;;16.90;60.11;99617.50;4288921;33;20104;-83
2023/05/22 02:15:47;;;;;;;6.47;5.00;;;;;;;16.90;60.12;99616.66;4288922;33;20348;-83
2023/05/22 02:18:13;;;;;;;7.65;5.37;;;;;;;16.74;60.10;99612.28;4288828;33;20143;-83
2023/05/22 02:20:38;;;;;;;9.15;5.20;;;;;;;16.96;60.12;99613.63;4276614;33;20109;-83
2023/05/22 02:23:04;;;;;;;8.60;4.80;;;;;;;16.98;60.12;99612.59;4288741;33;20176;-83
2023/05/22 02:25:29;;;;;;;14.15;5.45;;;;;;;17.03;60.12;99615.78;4276867;33;20109;-83
2023/05/22 02:27:54;;;;;;;8.07;5.10;;;;;;;17.00;60.12;99618.63;4287915;33;35428;-82
2023/05/22 02:30:20;;;;;;;9.25;4.70;;;;;;;16.89;60.11;99618.44;4288314;33;20602;-83
2023/05/22 02:32:45;;;;;;;8.80;5.07;;;;;;;16.84;60.10;99609.97;4288452;33;20440;-83
2023/05/22 02:35:11;;;;;;;7.75;4.90;;;;;;;16.97;60.11;99607.44;4289997;33;20104;-83
2023/05/22 02:37:36;;;;;;;11.10;5.60;;;;;;;17.01;60.12;99603.69;4288732;33;20147;-83
2023/05/22 02:40:05;;;;;;;9.48;4.85;;;;;;;17.01;60.12;99603.69;4276375;33;20113;-83
2023/05/22 02:42:30;;;;;;;7.62;5.00;;;;;;;16.89;60.11;99605.28;4288694;33;20604;-83
2023/05/22 02:44:56;;;;;;;8.48;4.40;;;;;;;16.96;60.11;99603.97;4289014;33;35960;-83
2023/05/22 02:47:21;;;;;;;7.40;4.78;;;;;;;17.05;60.12;99600.78;4276379;33;20147;-83
2023/05/22 02:49:47;;;;;;;10.75;4.75;;;;;;;16.78;60.11;99611.16;4287788;33;30665;-83
2023/05/22 02:52:12;;;;;;;8.43;4.82;;;;;;;16.98;60.12;99603.88;4276467;33;20758;-83
2023/05/22 02:54:37;;;;;;;6.87;4.62;;;;;;;16.99;60.11;99611.66;4287804;33;28948;-83
2023/05/22 02:57:03;;;;;;;7.03;4.20;;;;;;;16.87;60.11;99608.00;4287757;33;31491;-83
2023/05/22 02:59:28;;;;;;;8.40;4.55;;;;;;;16.80;60.11;99604.06;4276545;33;20430;-82
2023/05/22 03:01:54;;;;;;;6.53;4.93;;;;;;;16.46;60.08;99609.56;4288396;33;20109;-83
2023/05/22 03:04:20;;;;;;;8.63;4.62;;;;;;;16.42;60.09;99601.03;4288477;33;20100;-82
2023/05/22 03:06:45;;;;;;;6.97;4.37;;;;;;;15.98;60.06;99610.59;4288296;33;20113;-83
2023/05/22 03:09:10;;;;;;;8.60;4.53;;;;;;;16.00;60.07;99612.19;4288234;33;20152;-83
2023/05/22 03:11:36;;;;;;;12.18;5.10;;;;;;;16.11;60.07;99612.47;4276454;33;20176;-83
2023/05/22 03:14:01;;;;;;;10.20;4.97;;;;;;;16.36;60.08;99606.66;4287337;33;33844;-83
2023/05/22 03:16:27;;;;;;;10.35;4.30;;;;;;;16.44;60.09;99608.81;4288402;33;20153;-83
2023/05/22 03:19:06;;;;;;;9.07;4.80;;;;;;;16.45;60.08;99607.88;4288153;33;20132;-83
2023/05/22 03:21:31;;;;;;;6.80;3.92;;;;;;;16.64;60.10;99600.62;4276141;33;20112;-83
2023/05/22 03:23:57;;;;;;;6.80;3.90;;;;;;;16.40;60.09;99604.69;4288337;33;35300;-83
2023/05/22 03:26:22;;;;;;;6.55;4.50;;;;;;;16.49;60.09;99594.47;4289035;33;36838;-84
2023/05/22 03:28:49;;;;;;;10.43;4.47;;;;;;;16.16;60.08;99607.78;4289355;33;30913;-84
2023/05/22 03:31:14;;;;;;;7.55;4.30;;;;;;;16.34;60.08;99599.78;4289736;33;20100;-84
2023/05/22 03:33:40;;;;;;;10.95;4.07;;;;;;;16.31;60.08;99600.78;4289842;33;20187;-84
2023/05/22 03:36:06;;;;;;;11.10;4.45;;;;;;;16.23;60.08;99601.25;4290962;33;20110;-83
2023/05/22 03:38:31;;;;;;;4.57;3.55;;;;;;;16.39;60.08;99603.84;4278003;33;20140;-83
2023/05/22 03:40:56;;;;;;;6.35;3.42;;;;;;;16.49;60.09;99599.72;4289202;33;32138;-83
2023/05/22 03:43:22;;;;;;;9.30;4.20;;;;;;;16.53;60.09;99595.13;4277621;33;20157;-83
2023/05/22 03:45:47;;;;;;;7.72;3.62;;;;;;;16.46;60.08;99601.69;4289355;33;23032;-84
2023/05/22 03:48:12;;;;;;;5.40;3.50;;;;;;;16.55;60.10;99599.34;4289280;33;23032;-83
2023/05/22 03:50:38;;;;;;;5.30;3.50;;;;;;;16.64;60.10;99595.34;4288697;33;35385;-82
2023/05/22 03:53:04;;;;;;;6.28;3.28;;;;;;;16.80;60.11;99593.56;4289310;33;22150;-82
2023/05/22 03:55:30;;;;;;;7.05;3.87;;;;;;;16.67;60.09;99597.00;4289632;33;20089;-82
2023/05/22 03:57:55;;;;;;;8.00;3.60;;;;;;;16.85;60.11;99595.91;4289116;33;25356;-83
2023/05/22 04:00:21;;;;;;;6.97;3.30;;;;;;;16.80;60.10;99601.44;4277455;33;20362;-81
2023/05/22 04:02:46;;;;;;;9.00;3.78;;;;;;;17.01;60.12;99595.78;4289754;33;20145;-82
2023/05/22 04:05:11;;;;;;;4.75;3.35;;;;;;;17.08;60.12;99595.34;4290803;33;20452;-82
2023/05/22 04:07:37;;;;;;;5.15;3.80;;;;;;;17.24;60.12;99594.38;4277006;33;23929;-83
2023/05/22 04:10:03;;;;;;;6.53;2.95;;;;;;;17.16;60.13;99594.88;4289623;33;20121;-82
2023/05/22 04:12:29;;;;;;;6.20;3.20;;;;;;;17.45;60.14;99593.91;4289575;33;20109;-83
2023/05/22 04:14:54;;;;;;;6.25;3.45;;;;;;;17.36;60.13;99594.47;4277777;33;20665;-82
2023/05/22 04:17:19;;;;;;;6.05;3.58;;;;;;;17.35;60.13;99600.69;4289206;33;20144;-84
2023/05/22 04:19:45;;;;;;;4.15;3.17;;;;;;;17.47;60.15;99593.81;4289499;33;20363;-83
2023/05/22 04:22:10;;;;;;;5.18;3.33;;;;;;;17.73;60.16;99594.81;4289615;33;20404;-83
2023/05/22 04:24:38;;;;;;;5.75;3.75;;;;;;;17.51;60.14;99590.06;4277649;33;20152;-84
2023/05/22 04:27:06;;;;;;;4.90;3.22;;;;;;;17.61;60.16;99585.88;4289309;33;20130;-83
2023/05/22 04:29:35;;;;;;;5.90;3.22;;;;;;;17.68;60.15;99592.47;4290777;33;20092;-84
2023/05/22 04:32:00;;;;;;;4.80;3.12;;;;;;;17.77;60.16;99594.53;4289256;33;20112;-85
2023/05/22 04:34:26;;;;;;;6.18;2.97;;;;;;;17.89;60.16;99590.25;4289221;33;20115;-84
2023/05/22 04:36:51;;;;;;;5.70;3.25;;;;;;;18.04;60.17;99602.44;4290690;33;20114;-84
2023/05/22 04:39:16;;;;;;;6.10;3.22;;;;;;;18.33;60.19;99602.31;4289511;33;20152;-84
2023/05/22 04:41:43;;;;;;;4.68;2.67;;;;;;;18.25;60.19;99602.84;4277529;33;20084;-83
2023/05/22 04:44:08;;;;;;;5.20;2.70;;;;;;;18.49;60.20;99599.53;4289316;33;20100;-83
2023/05/22 04:46:34;;;;;;;5.22;2.90;;;;;;;18.58;60.20;99594.47;4289211;33;20501;-84
2023/05/22 04:49:00;;;;;;;7.82;2.97;;;;;;;18.71;60.21;99599.78;4289147;33;20149;-83
2023/05/22 04:51:30;;;;;;;7.30;3.17;;;;;;;18.81;60.22;99605.28;4290663;33;20164;-83
2023/05/22 04:53:57;;;;;;;5.90;2.73;;;;;;;19.06;60.22;99604.44;4277724;33;20084;-83
2023/05/22 04:56:23;;;;;;;4.80;2.75;;;;;;;19.07;60.22;99598.22;4289327;33;20092;-83
2023/05/22 04:58:49;;;;;;;5.15;2.67;;;;;;;19.15;60.22;99601.16;4289582;33;20127;-84
2023/05/22 05:01:15;;;;;;;7.35;2.50;;;;;;;19.44;60.24;99599.13;4289241;33;20061;-84
2023/05/22 05:03:41;;;;;;;7.25;3.05;;;;;;;19.40;60.25;99600.25;4289531;33;20116;-84
2023/05/22 05:06:07;;;;;;;5.47;2.25;;;;;;;19.57;60.25;99600.78;4290626;33;20168;-84
2023/05/22 05:08:32;;;;;;;7.90;3.22;;;;;;;19.71;60.26;99601.62;4289329;33;20145;-83
2023/05/22 05:10:58;;;;;;;7.82;3.22;;;;;;;19.79;60.27;99605.37;4290554;33;20119;-84
2023/05/22 05:13:23;;;;;;;6.82;2.72;;;;;;;20.03;60.28;99596.63;4288990;33;20129;-84
2023/05/22 05:15:49;;;;;;;5.95;3.10;;;;;;;20.13;60.28;99601.12;4277311;33;20121;-83
2023/05/22 05:18:14;;;;;;;8.05;2.70;;;;;;;20.23;60.29;99601.28;4289307;33;20140;-84
2023/05/22 05:20:40;;;;;;;11.55;2.87;;;;;;;20.43;60.30;99603.34;4289281;33;20104;-84
2023/05/22 05:23:05;;;;;;;7.95;3.30;;;;;;;20.58;60.30;99608.41;4289290;33;20120;-84
2023/05/22 05:25:30;;;;;;;5.75;3.30;;;;;;;20.92;60.32;99604.03;4288830;33;20218;-84
2023/05/22 05:27:56;;;;;;;7.35;3.67;;;;;;;20.93;60.32;99601.28;4288638;33;29553;-84
2023/05/22 05:30:22;;;;;;;7.32;3.90;;;;;;;20.98;60.33;99607.06;4288796;33;20088;-84
2023/05/22 05:32:47;;;;;;;6.45;3.85;;;;;;;20.94;60.33;99608.25;4290293;33;20085;-83
2023/05/22 05:35:12;;;;;;;8.60;3.60;;;;;;;21.00;60.32;99613.06;4290136;33;20136;-83
2023/05/22 05:37:38;;;;;;;7.75;3.55;;;;;;;21.13;60.33;99615.62;4288971;33;20100;-84
2023/05/22 05:40:05;;;;;;;12.77;3.92;;;;;;;21.36;60.35;99614.69;4288723;33;20088;-84
2023/05/22 05:42:31;;;;;;;11.27;3.33;;;;;;;21.54;60.35;99615.06;4288982;33;20220;-84
2023/05/22 05:44:56;;;;;;;8.13;3.42;;;;;;;21.64;60.36;99615.16;4289043;33;20204;-84
2023/05/22 05:47:22;;;;;;;6.50;2.53;;;;;;;21.59;60.36;99612.87;4288433;33;26571;-83
2023/05/22 05:49:48;;;;;;;5.00;2.45;;;;;;;21.72;60.37;99618.03;4288298;33;20128;-84
2023/05/22 05:52:13;;;;;;;5.75;2.75;;;;;;;21.92;60.37;99611.97;4289997;33;20081;-83
2023/05/22 05:54:45;;;;;;;7.30;2.40;;;;;;;22.10;60.39;99617.63;4287985;33;20132;-84
2023/05/22 05:57:10;;;;;;;6.87;2.58;;;;;;;22.30;60.40;99614.16;4288158;33;20168;-84
2023/05/22 05:59:36;;;;;;;6.57;2.40;;;;;;;22.40;60.40;99621.34;4289845;33;20104;-84
2023/05/22 06:02:01;;;;;;;5.70;1.90;;;;;;;22.57;60.41;99608.38;4288418;33;20144;-84
2023/05/22 06:04:27;;;;;;;8.25;2.12;;;;;;;22.67;60.42;99611.09;4288582;33;20365;-84
2023/05/22 06:06:52;;;;;;;6.50;2.60;;;;;;;22.72;60.42;99610.72;4289973;33;20088;-84
2023/05/22 06:09:18;;;;;;;9.32;2.60;;;;;;;22.91;60.43;99614.34;4289890;33;20124;-84
2023/05/22 06:11:43;;;;;;;3.25;1.73;;;;;;;23.07;60.44;99613.88;4287988;33;32703;-84
2023/05/22 06:14:09;;;;;;;4.15;2.03;;;;;;;23.20;60.44;99606.56;4288012;33;23149;-84
2023/05/22 06:16:35;;;;;;;5.70;2.70;;;;;;;23.42;60.45;99612.63;4287717;33;20109;-83
2023/05/22 06:19:00;;;;;;;8.15;2.00;;;;;;;23.41;60.45;99606.47;4288345;33;20426;-83
2023/05/22 06:21:26;;;;;;;7.40;2.50;;;;;;;23.50;60.46;99608.34;4288552;33;20089;-83
2023/05/22 06:23:51;;;;;;;7.50;2.20;;;;;;;23.63;60.46;99602.81;4287917;33;20188;-83
2023/05/22 06:26:17;;;;;;;4.18;2.12;;;;;;;23.86;60.47;99595.44;4289657;33;20123;-83
2023/05/22 06:28:43;;;;;;;4.95;1.92;;;;;;;23.85;60.47;99605.25;4287458;33;20370;-83
2023/05/22 06:31:08;;;;;;;4.07;2.25;;;;;;;24.02;60.49;99598.41;4276035;33;20359;-83
2023/05/22 06:33:35;;;;;;;5.55;2.12;;;;;;;24.18;60.49;99598.72;4289398;33;20135;-83
2023/05/22 06:36:02;;;;;;;2.75;1.95;;;;;;;24.30;60.50;99591.47;4288034;33;20126;-82
2023/05/22 06:38:28;;;;;;;7.70;2.80;;;;;;;24.49;60.51;99595.94;4288038;33;20123;-84
2023/05/22 06:40:53;;;;;;;5.45;2.60;;;;;;;24.75;60.53;99599.69;4288352;33;20394;-83
2023/05/22 06:43:18;;;;;;;4.95;2.53;;;;;;;24.92;60.54;99610.59;4288538;33;30841;-83
2023/05/22 06:45:44;;;;;;;5.18;2.40;;;;;;;25.32;60.55;99605.03;4288538;33;20190;-84
2023/05/22 06:48:10;;;;;;;4.80;2.05;;;;;;;25.49;60.56;99606.06;4276162;33;20144;-83
2023/05/22 06:50:36;;;;;;;6.28;2.17;;;;;;;25.73;60.57;99603.72;4287433;33;20119;-82
2023/05/22 06:53:01;;;;;;;4.53;2.28;;;;;;;25.80;60.58;99604.81;4289087;33;20161;-82
2023/05/22 06:55:26;;;;;;;4.10;2.42;;;;;;;25.91;60.58;99617.91;4287903;33;20480;-83
2023/05/22 06:57:52;;;;;;;5.22;2.30;;;;;;;26.20;60.59;99612.37;4287960;33;20115;-82
2023/05/22 07:00:18;;;;;;;5.57;2.53;;;;;;;26.27;60.60;99607.28;4289074;33;20120;-82
2023/05/22 07:02:43;;;;;;;5.00;2.62;;;;;;;26.40;60.60;99609.59;4287603;33;20109;-83
2023/05/22 07:05:08;;;;;;;14.00;2.95;;;;;;;26.53;60.61;99608.22;4288199;33;20159;-82
2023/05/22 07:07:34;;;;;;;9.15;2.53;;;;;;;26.49;60.62;99604.16;4288208;33;20480;-83
2023/05/22 07:10:00;;;;;;;9.65;2.87;;;;;;;26.38;60.61;99603.56;4287441;33;20101;-83
2023/05/22 07:12:26;;;;;;;8.95;2.83;;;;;;;26.64;60.63;99600.94;4287913;33;20109;-82
2023/05/22 07:14:51;;;;;;;5.25;2.67;;;;;;;26.58;60.62;99603.25;4289207;33;20120;-82
2023/05/22 07:17:19;;;;;;;4.75;2.50;;;;;;;26.63;60.62;99600.09;4275414;33;20104;-83
2023/05/22 07:19:44;;;;;;;5.45;2.60;;;;;;;26.67;60.63;99611.31;4288372;33;20084;-84
2023/05/22 07:22:10;;;;;;;5.18;3.03;;;;;;;26.51;60.62;99602.19;4288029;33;20422;-83
2023/05/22 07:24:35;;;;;;;8.13;2.72;;;;;;;25.92;60.60;99614.25;4287890;33;20151;-84
2023/05/22 07:27:02;;;;;;;9.88;2.95;;;;;;;25.75;60.58;99623.06;4289401;33;20175;-82
2023/05/22 07:29:28;;;;;;;7.62;2.70;;;;;;;25.60;60.57;99625.38;4287833;33;20207;-82
2023/05/22 07:31:54;;;;;;;5.68;2.45;;;;;;;25.34;60.56;99622.53;4288093;33;20508;-83
2023/05/22 07:34:19;;;;;;;7.57;2.17;;;;;;;25.42;60.57;99618.31;4276133;33;20108;-83
2023/05/22 07:36:45;;;;;;;5.70;2.40;;;;;;;25.40;60.57;99621.94;4287776;33;20104;-82
2023/05/22 07:39:10;;;;;;;8.85;2.47;;;;;;;25.35;60.56;99618.06;4287586;33;20124;-83
2023/05/22 07:41:36;;;;;;;6.10;2.60;;;;;;;25.45;60.56;99624.16;4287602;33;20436;-83
2023/05/22 07:44:01;;;;;;;9.60;2.45;;;;;;;25.20;60.55;99614.19;4287894;33;20151;-83
2023/05/22 07:46:27;;;;;;;11.38;2.30;;;;;;;25.04;60.55;99614.78;4288968;33;20164;-84
2023/05/22 07:48:52;;;;;;;4.72;2.37;;;;;;;25.24;60.56;99616.41;4289062;33;20085;-83
2023/05/22 07:51:18;;;;;;;5.60;2.50;;;;;;;25.40;60.56;99611.28;4287062;33;20447;-83
2023/05/22 07:53:43;;;;;;;7.05;2.33;;;;;;;25.54;60.58;99609.94;4287060;33;20104;-83
2023/05/22 07:56:08;;;;;;;5.25;2.72;;;;;;;25.77;60.59;99602.41;4287582;33;20420;-83
2023/05/22 07:58:35;;;;;;;5.68;2.90;;;;;;;25.83;60.59;99609.00;4287767;33;20139;-81
2023/05/22 08:01:01;;;;;;;6.15;2.30;;;;;;;25.98;60.60;99605.66;4287519;33;20859;-83
2023/05/22 08:03:27;;;;;;;9.88;2.37;;;;;;;26.16;60.60;99594.16;4288645;33;20101;-82
2023/05/22 08:05:52;;;;;;;9.45;3.05;;;;;;;26.01;60.60;99602.69;4287366;33;20359;-83
2023/05/22 08:08:18;;;;;;;6.32;2.60;;;;;;;26.05;60.60;99608.56;4275513;33;20112;-83
2023/05/22 08:10:43;;;;;;;8.52;2.60;;;;;;;26.11;60.60;99601.78;4290422;33;20100;-83
2023/05/22 08:13:09;;;;;;;6.20;2.60;;;;;;;26.17;60.61;99612.69;4290851;33;20201;-82
2023/05/22 08:15:34;;;;;;;9.93;2.58;;;;;;;26.19;60.61;99612.53;4277582;33;20152;-82
2023/05/22 08:18:00;;;;;;;6.47;2.37;;;;;;;26.35;60.62;99604.72;4290857;33;20085;-84
2023/05/22 08:20:25;;;;;;;4.57;2.28;;;;;;;26.23;60.62;99600.56;4290387;33;20130;-84
2023/05/22 08:22:51;;;;;;;11.88;3.12;;;;;;;26.21;60.60;99607.88;4277331;33;20172;-82
2023/05/22 08:25:16;;;;;;;4.37;2.28;;;;;;;26.12;60.60;99606.13;4290578;33;20140;-82
2023/05/22 08:27:42;;;;;;;3.92;2.35;;;;;;;26.42;60.62;99600.44;4289550;33;20089;-84
2023/05/22 08:30:08;;;;;;;4.75;2.60;;;;;;;26.65;60.63;99598.13;4290256;33;20135;-83
2023/05/22 08:32:33;;;;;;;4.90;2.17;;;;;;;26.84;60.64;99597.94;4290759;33;20466;-82
2023/05/22 08:34:59;;;;;;;10.77;3.25;;;;;;;27.10;60.64;99597.94;4289254;33;20130;-82
2023/05/22 08:37:25;;;;;;;6.22;2.65;;;;;;;27.44;60.68;99605.94;4289710;33;20187;-83
2023/05/22 08:39:50;;;;;;;13.95;3.15;;;;;;;27.75;60.69;99606.28;4289915;33;20123;-83
2023/05/22 08:42:15;;;;;;;5.25;2.33;;;;;;;27.97;60.70;99601.34;4289699;33;20176;-83
2023/05/22 08:44:41;;;;;;;7.57;2.65;;;;;;;28.08;60.70;99598.34;4291084;33;20455;-83
2023/05/22 08:47:09;;;;;;;5.53;2.72;;;;;;;28.36;60.72;99594.38;4290419;33;27137;-84
2023/05/22 08:49:36;;;;;;;7.22;3.22;;;;;;;28.45;60.73;99589.03;4289067;33;20213;-83
2023/05/22 08:52:09;;;;;;;9.85;2.90;;;;;;;28.80;60.74;99599.38;4277370;33;20117;-82
2023/05/22 08:54:35;;;;;;;9.45;2.65;;;;;;;28.96;60.75;99588.66;4289031;33;20482;-82
2023/05/22 08:57:00;;;;;;;5.20;2.60;;;;;;;29.07;60.75;99597.34;4288780;33;22560;-83
2023/05/22 08:59:26;;;;;;;5.95;2.80;;;;;;;29.14;60.75;99593.81;4277427;33;20129;-82
2023/05/22 09:01:52;;;;;;;7.53;2.70;;;;;;;29.02;60.75;99587.97;4289094;33;20085;-84
2023/05/22 09:04:17;;;;;;;10.02;3.08;;;;;;;29.03;60.75;99597.69;4290559;33;20131;-84
2023/05/22 09:06:46;;;;;;;8.45;3.10;;;;;;;29.04;60.75;99591.31;4289361;33;20190;-82
2023/05/22 09:09:11;;;;;;;11.73;3.20;;;;;;;28.91;60.74;99585.69;4289314;33;20172;-83
2023/05/22 09:11:37;;;;;;;4.93;2.60;;;;;;;28.88;60.75;99590.53;4289146;33;20124;-83
2023/05/22 09:14:09;;;;;;;6.80;3.22;;;;;;;28.83;60.74;99592.84;4288515;33;27496;-83
2023/05/22 09:16:48;;;;;;;6.72;2.87;;;;;;;28.92;60.75;99595.38;4289551;33;20120;-82
2023/05/22 09:19:13;;;;;;;4.03;2.83;;;;;;;28.78;60.74;99592.53;4290896;33;20121;-83
2023/05/22 09:21:39;;;;;;;6.10;2.58;;;;;;;29.04;60.75;99593.16;4287917;33;20455;-84
2023/05/22 09:24:07;;;;;;;9.85;2.95;;;;;;;29.18;60.76;99584.44;4290371;33;20165;-83
2023/05/22 09:26:33;;;;;;;5.05;2.45;;;;;;;29.44;60.77;99591.38;4289333;33;20106;-83
2023/05/22 09:28:58;;;;;;;4.87;3.30;;;;;;;29.68;60.78;99577.88;4289081;33;20120;-83
2023/05/22 09:31:24;;;;;;;8.05;2.80;;;;;;;29.67;60.78;99588.78;4277202;33;20119;-83
2023/05/22 09:33:49;;;;;;;5.65;3.10;;;;;;;29.86;60.79;99574.94;4289098;33;20089;-84
2023/05/22 09:36:15;;;;;;;11.20;2.87;;;;;;;29.94;60.80;99586.44;4288701;33;23913;-83
2023/05/22 09:38:41;;;;;;;6.68;2.75;;;;;;;29.94;60.79;99585.59;4288947;33;20689;-84
2023/05/22 09:41:06;;;;;;;4.43;3.30;;;;;;;30.12;60.81;99585.34;4289133;33;20134;-84
2023/05/22 09:43:32;;;;;;;5.18;2.95;;;;;;;30.15;60.81;99583.16;4289961;33;20148;-84
2023/05/22 09:46:00;;;;;;;5.65;3.25;;;;;;;30.15;60.81;99576.94;4288164;33;22730;-83
2023/05/22 09:48:26;;;;;;;5.12;3.35;;;;;;;30.17;60.80;99581.13;4276521;33;20131;-85
2023/05/22 09:50:54;;;;;;;9.18;3.30;;;;;;;30.14;60.81;99578.78;4290229;33;20104;-83
2023/05/22 09:53:24;;;;;;;8.15;3.05;;;;;;;30.02;60.80;99587.38;4289138;33;20406;-84
2023/05/22 09:55:50;;;;;;;7.37;3.00;;;;;;;29.94;60.79;99575.72;4277294;33;20100;-86
2023/05/22 09:58:18;;;;;;;5.68;3.10;;;;;;;29.83;60.79;99577.97;4288862;33;20152;-83
2023/05/22 10:00:43;;;;;;;7.07;3.10;;;;;;;30.00;60.80;99578.69;4289015;33;20542;-83
2023/05/22 10:03:11;;;;;;;4.97;3.30;;;;;;;30.01;60.80;99567.78;4276794;33;20153;-84
2023/05/22 10:05:37;;;;;;;3.87;2.75;;;;;;;30.17;60.81;99565.00;4288944;33;20120;-83
2023/05/22 10:08:29;;;;;;;8.27;2.78;;;;;;;30.37;60.82;99573.41;4289048;33;20495;-83
2023/05/22 10:10:54;;;;;;;11.15;3.42;;;;;;;30.67;60.83;99566.28;4289011;33;20112;-85
2023/05/22 10:13:20;;;;;;;7.93;3.08;;;;;;;30.69;60.83;99571.47;4288948;33;20378;-84
2023/05/22 10:15:47;;;;;;;11.02;3.90;;;;;;;30.74;60.84;99569.06;4290270;33;20089;-85
2023/05/22 10:18:14;;;;;;;10.85;3.28;;;;;;;30.67;60.83;99568.97;4277078;33;20138;-84
2023/05/22 10:20:39;;;;;;;5.03;2.87;;;;;;;30.49;60.82;99561.19;4288877;33;20116;-83
2023/05/22 10:23:05;;;;;;;6.22;3.70;;;;;;;30.46;60.82;99560.75;4288916;33;20134;-83
2023/05/22 10:25:31;;;;;;;4.43;2.90;;;;;;;30.67;60.83;99554.69;4288641;33;20109;-83
2023/05/22 10:27:56;;;;;;;3.97;2.97;;;;;;;30.74;60.84;99548.41;4290033;33;20120;-83
2023/05/22 10:30:49;;;;;;;5.10;3.30;;;;;;;30.78;60.84;99548.91;4287880;33;35173;-84
2023/05/22 10:33:23;;;;;;;6.05;2.95;;;;;;;30.95;60.85;99553.06;4288253;33;20163;-84
2023/05/22 10:35:57;;;;;;;4.47;2.60;;;;;;;30.99;60.86;99543.59;4289988;33;20084;-83
2023/05/22 10:38:56;;;;;;;7.90;3.60;;;;;;;31.11;60.86;99546.66;4288963;33;20714;-83
2023/05/22 10:41:22;;;;;;;6.72;3.15;;;;;;;31.09;60.86;99543.34;4289977;33;20132;-84
2023/05/22 10:43:48;;;;;;;5.32;3.22;;;;;;;31.02;60.85;99540.56;4276775;33;20096;-83
2023/05/22 10:46:13;;;;;;;6.07;3.33;;;;;;;30.97;60.85;99528.69;4289672;33;20453;-84
2023/05/22 10:48:44;;;;;;;7.70;2.72;;;;;;;30.89;60.85;99523.41;4288505;33;20116;-83
2023/05/22 10:51:11;;;;;;;10.48;2.83;;;;;;;30.99;60.86;99532.00;4289676;33;20550;-82
2023/05/22 10:53:36;;;;;;;8.00;3.33;;;;;;;31.15;60.86;99529.97;4288316;33;20928;-84
2023/05/22 10:56:31;;;;;;;5.68;3.05;;;;;;;31.11;60.86;99535.91;4288118;33;22333;-83
2023/05/22 10:59:01;;;;;;;9.48;3.08;;;;;;;31.12;60.86;99524.12;4288287;33;20770;-81
2023/05/22 11:01:27;;;;;;;5.15;2.62;;;;;;;31.01;60.85;99527.31;4276767;33;20132;-83
2023/05/22 11:04:00;;;;;;;8.00;3.28;;;;;;;30.62;60.84;99524.88;4276815;33;20156;-84
2023/05/22 11:06:58;;;;;;;9.10;3.40;;;;;;;30.84;60.85;99516.72;4289848;33;20443;-83
2023/05/22 11:09:30;;;;;;;6.03;3.08;;;;;;;31.00;60.86;99517.59;4288727;33;20494;-84
2023/05/22 11:12:26;;;;;;;8.38;3.72;;;;;;;31.14;60.86;99514.03;4288628;33;20134;-82
2023/05/22 11:14:51;;;;;;;4.35;2.80;;;;;;;31.10;60.86;99502.81;4289355;33;20109;-82
2023/05/22 11:17:20;;;;;;;7.45;3.22;;;;;;;31.03;60.86;99503.75;4289529;33;20092;-82
2023/05/22 11:20:17;;;;;;;4.60;3.30;;;;;;;31.12;60.86;99508.00;4288250;33;20123;-83
2023/05/22 11:22:43;;;;;;;9.73;3.33;;;;;;;31.37;60.87;99495.94;4287742;33;20187;-83
2023/05/22 11:25:16;;;;;;;6.70;2.80;;;;;;;31.18;60.87;99501.91;4288017;33;20126;-82
2023/05/22 11:27:42;;;;;;;7.70;2.80;;;;;;;30.88;60.85;99494.84;4276374;33;20150;-82
2023/05/22 11:30:08;;;;;;;5.03;2.67;;;;;;;30.79;60.84;99503.03;4287672;33;20120;-83
2023/05/22 11:32:37;;;;;;;5.78;3.00;;;;;;;30.64;60.84;99493.28;4276059;33;20117;-83